Terminal Aerodrome Forecast
Issued by NWS Cleveland, OH

Home | Current Version | Previous Version | Text Only | Print | Product List | Glossary On
Versions: 1 2 3 4 5 6 7 8 9 10 11 12 13 14 15 16 17 18 19 20
595
FTUS41 KCLE 231237 AAA
TAFMFD
TAF AMD
KMFD 231237Z 2313/2412 20014KT 6SM BR SCT012 BKN030
      TEMPO 2313/2316 BKN012
     FM231600 22010KT P6SM BKN025
     FM240000 05006KT 5SM BR OVC025
     FM240400 13006KT 3SM -SHRA BR OVC012
     FM241000 18012KT 5SM -SHRA BR SCT012 OVC035=

USA.gov is the U.S. government's official web portal to all federal, state and local government web resources and services.